Time;durP1;ratioP1;P1;durP2;ratioP2;P2;SDS_P1;SDS_P2;PMS_P1;PMS_P2;Temp;Humidity;BMP_temperature;BMP_pressure;BME280_temperature;BME280_humidity;BME280_pressure;Samples;Min_cycle;Max_cycle;Signal;HPM_P1;HPM_P2
2024/04/14 00:00:38;;;;;;;4.88;0.90;;;;;;;;;;5360311;26;20074;-72
2024/04/14 00:03:04;;;;;;;1.17;0.80;;;;;;;;;;5342365;26;20286;-70
2024/04/14 00:05:30;;;;;;;5.70;1.40;;;;;;;;;;5356520;26;20492;-71
2024/04/14 00:07:56;;;;;;;2.28;0.80;;;;;;;;;;5358332;26;20036;-71
2024/04/14 00:10:22;;;;;;;2.33;1.00;;;;;;;;;;5345128;26;20000;-71
2024/04/14 00:12:48;;;;;;;1.65;0.95;;;;;;;;;;5357102;26;20011;-71
2024/04/14 00:15:14;;;;;;;2.55;1.10;;;;;;;;;;5353522;26;20000;-71
2024/04/14 00:17:40;;;;;;;1.08;0.65;;;;;;;;;;5346147;26;20004;-71
2024/04/14 00:20:06;;;;;;;1.65;0.90;;;;;;;;;;5352063;26;20001;-71
2024/04/14 00:22:32;;;;;;;1.33;0.70;;;;;;;;;;5351944;26;20365;-71
2024/04/14 00:24:58;;;;;;;1.52;0.80;;;;;;;;;;5359517;26;20020;-72
2024/04/14 00:27:24;;;;;;;4.15;1.15;;;;;;;;;;5363914;26;20015;-71
2024/04/14 00:29:50;;;;;;;3.22;1.08;;;;;;;;;;5354433;26;19996;-71
2024/04/14 00:32:16;;;;;;;2.05;1.05;;;;;;;;;;5355565;26;20164;-71
2024/04/14 00:34:42;;;;;;;2.65;0.90;;;;;;;;;;5349677;26;19993;-71
2024/04/14 00:37:07;;;;;;;2.47;1.00;;;;;;;;;;5355574;26;20003;-71
2024/04/14 00:39:33;;;;;;;2.53;0.90;;;;;;;;;;5360175;26;20012;-71
2024/04/14 00:42:00;;;;;;;2.72;1.27;;;;;;;;;;5354132;26;20000;-71
2024/04/14 00:44:26;;;;;;;2.15;1.13;;;;;;;;;;5346111;26;20026;-72
2024/04/14 00:46:54;;;;;;;4.00;1.05;;;;;;;;;;5360848;26;20085;-71
2024/04/14 00:49:20;;;;;;;1.85;0.85;;;;;;;;;;5355473;26;20068;-71
2024/04/14 00:51:46;;;;;;;3.80;1.10;;;;;;;;;;5346632;26;20380;-71
2024/04/14 00:54:17;;;;;;;4.68;1.40;;;;;;;;;;5343011;26;20402;-71
2024/04/14 00:56:43;;;;;;;4.35;1.20;;;;;;;;;;5367559;26;20364;-71
2024/04/14 00:59:09;;;;;;;1.63;1.05;;;;;;;;;;5360794;26;20077;-71
2024/04/14 01:01:36;;;;;;;3.03;1.20;;;;;;;;;;5361673;26;20024;-71
2024/04/14 01:04:02;;;;;;;2.92;0.95;;;;;;;;;;5358270;26;20052;-71
2024/04/14 01:06:28;;;;;;;3.05;1.30;;;;;;;;;;5360754;26;20000;-71
2024/04/14 01:08:54;;;;;;;2.85;0.90;;;;;;;;;;5357601;26;20001;-72
2024/04/14 01:11:20;;;;;;;4.00;0.90;;;;;;;;;;5359314;26;20386;-70
2024/04/14 01:13:47;;;;;;;1.67;0.85;;;;;;;;;;5351438;26;20051;-71
2024/04/14 01:16:13;;;;;;;1.48;0.93;;;;;;;;;;5359226;26;20001;-72
2024/04/14 01:18:39;;;;;;;2.47;1.27;;;;;;;;;;5352746;26;20012;-71
2024/04/14 01:21:06;;;;;;;1.42;0.90;;;;;;;;;;5367136;26;20355;-71
2024/04/14 01:23:33;;;;;;;4.75;1.20;;;;;;;;;;5356540;26;20011;-71
2024/04/14 01:25:59;;;;;;;4.65;1.10;;;;;;;;;;5349390;26;20004;-71
2024/04/14 01:28:24;;;;;;;1.67;1.02;;;;;;;;;;5360115;26;20000;-71
2024/04/14 01:30:50;;;;;;;1.48;0.70;;;;;;;;;;5357411;26;20025;-72
2024/04/14 01:33:17;;;;;;;2.88;1.02;;;;;;;;;;5350862;26;20001;-70
2024/04/14 01:35:43;;;;;;;4.03;1.00;;;;;;;;;;5359542;26;20009;-71
2024/04/14 01:38:09;;;;;;;1.50;0.77;;;;;;;;;;5348779;26;20085;-71
2024/04/14 01:40:35;;;;;;;2.25;0.90;;;;;;;;;;5343190;26;20428;-71
2024/04/14 01:43:01;;;;;;;2.50;0.93;;;;;;;;;;5367436;26;20000;-72
2024/04/14 01:45:27;;;;;;;1.35;0.90;;;;;;;;;;5359181;26;20020;-71
2024/04/14 01:47:53;;;;;;;2.70;1.00;;;;;;;;;;5357235;26;20081;-71
2024/04/14 01:50:19;;;;;;;1.63;0.95;;;;;;;;;;5362380;26;19993;-71
2024/04/14 01:52:45;;;;;;;2.33;0.70;;;;;;;;;;5358331;26;20119;-72
2024/04/14 01:55:11;;;;;;;2.58;1.17;;;;;;;;;;5360532;26;20000;-72
2024/04/14 01:57:37;;;;;;;4.35;1.35;;;;;;;;;;5366397;26;20357;-71
2024/04/14 02:00:03;;;;;;;1.80;1.08;;;;;;;;;;5354413;26;20106;-71
2024/04/14 02:02:29;;;;;;;4.05;1.20;;;;;;;;;;5356211;26;20019;-71
2024/04/14 02:04:54;;;;;;;4.50;1.10;;;;;;;;;;5364250;26;20029;-71
2024/04/14 02:07:21;;;;;;;4.10;1.55;;;;;;;;;;5355455;26;20004;-71
2024/04/14 02:09:47;;;;;;;2.20;1.00;;;;;;;;;;5362377;26;19997;-73
2024/04/14 02:12:13;;;;;;;3.00;1.30;;;;;;;;;;5361202;26;20015;-71
2024/04/14 02:14:38;;;;;;;4.68;1.55;;;;;;;;;;5354773;26;20020;-72
2024/04/14 02:17:04;;;;;;;2.55;1.38;;;;;;;;;;5363412;26;20000;-71
2024/04/14 02:19:30;;;;;;;4.03;1.25;;;;;;;;;;5360297;26;20000;-70
2024/04/14 02:21:56;;;;;;;3.22;1.13;;;;;;;;;;5358560;26;20312;-71
2024/04/14 02:24:23;;;;;;;2.40;1.17;;;;;;;;;;5354773;26;20019;-70
2024/04/14 02:26:49;;;;;;;3.28;1.63;;;;;;;;;;5365207;26;20012;-71
2024/04/14 02:29:15;;;;;;;3.75;1.42;;;;;;;;;;5363607;26;20090;-71
2024/04/14 02:31:41;;;;;;;1.98;1.20;;;;;;;;;;5349318;26;20364;-71
2024/04/14 02:34:07;;;;;;;2.97;1.17;;;;;;;;;;5356313;26;20488;-72
2024/04/14 02:36:33;;;;;;;5.15;1.17;;;;;;;;;;5353308;26;20017;-73
2024/04/14 02:38:59;;;;;;;3.72;1.42;;;;;;;;;;5359094;26;20028;-71
2024/04/14 02:41:25;;;;;;;2.00;1.30;;;;;;;;;;5361275;26;20028;-71
2024/04/14 02:43:50;;;;;;;3.33;1.30;;;;;;;;;;5364066;26;20002;-72
2024/04/14 02:46:17;;;;;;;5.10;1.50;;;;;;;;;;5359406;26;20000;-71
2024/04/14 02:48:47;;;;;;;3.95;1.27;;;;;;;;;;5361787;26;20008;-72
2024/04/14 02:51:13;;;;;;;3.45;1.10;;;;;;;;;;5358106;26;20005;-74
2024/04/14 02:53:39;;;;;;;3.25;0.90;;;;;;;;;;5367832;26;20018;-72
2024/04/14 02:56:05;;;;;;;2.22;0.85;;;;;;;;;;5351683;26;20012;-71
2024/04/14 02:58:31;;;;;;;1.73;0.60;;;;;;;;;;5341790;26;20075;-72
2024/04/14 03:01:01;;;;;;;3.10;0.80;;;;;;;;;;5351343;26;20426;-72
2024/04/14 03:03:27;;;;;;;1.58;0.45;;;;;;;;;;5360958;26;20288;-71
2024/04/14 03:06:05;;;;;;;3.55;0.90;;;;;;;;;;5364223;26;20396;-71
2024/04/14 03:08:31;;;;;;;1.52;0.47;;;;;;;;;;5358381;26;20189;-72
2024/04/14 03:10:58;;;;;;;2.83;0.73;;;;;;;;;;5363191;26;20087;-71
2024/04/14 03:13:24;;;;;;;1.25;0.50;;;;;;;;;;5360102;26;20000;-71
2024/04/14 03:15:51;;;;;;;2.88;0.52;;;;;;;;;;5342016;26;20120;-71
2024/04/14 03:18:17;;;;;;;1.27;0.50;;;;;;;;;;5345914;26;20007;-71
2024/04/14 03:20:43;;;;;;;1.45;0.70;;;;;;;;;;5365780;26;20001;-71
2024/04/14 03:23:09;;;;;;;1.90;0.50;;;;;;;;;;5359107;26;20028;-71
2024/04/14 03:25:35;;;;;;;0.75;0.40;;;;;;;;;;5365032;26;20452;-72
2024/04/14 03:28:01;;;;;;;1.10;0.40;;;;;;;;;;5353148;26;20015;-71
2024/04/14 03:30:27;;;;;;;0.73;0.52;;;;;;;;;;5360294;26;19996;-71
2024/04/14 03:32:53;;;;;;;2.05;0.70;;;;;;;;;;5358520;26;20317;-71
2024/04/14 03:35:19;;;;;;;0.30;0.30;;;;;;;;;;5363322;26;20004;-71
2024/04/14 03:37:45;;;;;;;1.88;0.57;;;;;;;;;;5367115;26;19992;-72
2024/04/14 03:40:11;;;;;;;2.60;0.70;;;;;;;;;;5362296;26;20011;-72
2024/04/14 03:42:37;;;;;;;2.67;1.02;;;;;;;;;;5366250;26;20103;-71
2024/04/14 03:45:12;;;;;;;0.73;0.40;;;;;;;;;;5361924;26;20036;-72
2024/04/14 03:47:38;;;;;;;1.25;0.57;;;;;;;;;;5361309;26;19996;-72
2024/04/14 03:50:04;;;;;;;0.63;0.40;;;;;;;;;;5355932;26;20019;-71
2024/04/14 03:52:30;;;;;;;0.50;0.30;;;;;;;;;;5354188;26;20009;-71
2024/04/14 03:54:56;;;;;;;1.45;0.50;;;;;;;;;;5357950;26;20340;-71
2024/04/14 03:57:22;;;;;;;1.38;0.80;;;;;;;;;;5356503;26;20112;-71
2024/04/14 03:59:48;;;;;;;1.42;0.60;;;;;;;;;;5357952;26;20015;-71
2024/04/14 04:02:14;;;;;;;1.02;0.50;;;;;;;;;;5364552;26;20308;-72
2024/04/14 04:04:40;;;;;;;1.38;0.65;;;;;;;;;;5348782;26;20011;-72
2024/04/14 04:07:06;;;;;;;0.45;0.38;;;;;;;;;;5352988;26;20008;-72
2024/04/14 04:09:32;;;;;;;2.25;0.55;;;;;;;;;;5361144;26;20301;-71
2024/04/14 04:11:59;;;;;;;1.30;0.55;;;;;;;;;;5345041;26;20029;-73
2024/04/14 04:14:25;;;;;;;1.63;0.65;;;;;;;;;;5359710;26;20108;-73
2024/04/14 04:16:51;;;;;;;4.03;0.88;;;;;;;;;;5363379;26;20024;-71
2024/04/14 04:19:16;;;;;;;1.85;0.85;;;;;;;;;;5344104;26;19996;-71
2024/04/14 04:21:42;;;;;;;1.13;0.47;;;;;;;;;;5359216;26;20034;-71
2024/04/14 04:24:08;;;;;;;2.42;0.60;;;;;;;;;;5367521;26;20011;-71
2024/04/14 04:26:34;;;;;;;0.30;0.20;;;;;;;;;;5359169;26;20000;-71
2024/04/14 04:29:00;;;;;;;1.65;0.28;;;;;;;;;;5354484;26;20407;-70
2024/04/14 04:31:26;;;;;;;2.10;0.55;;;;;;;;;;5366048;26;20011;-70
2024/04/14 04:33:52;;;;;;;1.17;0.38;;;;;;;;;;5360601;26;20413;-70
2024/04/14 04:36:18;;;;;;;1.23;0.60;;;;;;;;;;5347330;26;20009;-70
2024/04/14 04:38:45;;;;;;;3.50;0.80;;;;;;;;;;5352303;26;20005;-70
2024/04/14 04:41:11;;;;;;;1.50;0.40;;;;;;;;;;5360047;26;20051;-70
2024/04/14 04:43:38;;;;;;;1.80;0.63;;;;;;;;;;5364583;26;20077;-70
2024/04/14 04:46:04;;;;;;;2.78;0.68;;;;;;;;;;5362701;26;20192;-70
2024/04/14 04:48:30;;;;;;;1.70;0.77;;;;;;;;;;5362827;26;20011;-70
2024/04/14 04:50:56;;;;;;;4.72;0.60;;;;;;;;;;5343767;26;20004;-70
2024/04/14 04:53:22;;;;;;;1.75;0.50;;;;;;;;;;5357586;26;20011;-70
2024/04/14 04:55:48;;;;;;;1.92;0.57;;;;;;;;;;5359857;26;20004;-70
2024/04/14 04:58:14;;;;;;;1.08;0.55;;;;;;;;;;5343504;26;20004;-70
2024/04/14 05:00:40;;;;;;;1.75;0.68;;;;;;;;;;5350810;26;20304;-70
2024/04/14 05:03:06;;;;;;;0.40;0.32;;;;;;;;;;5360357;26;20103;-70
2024/04/14 05:05:32;;;;;;;1.25;0.32;;;;;;;;;;5367666;26;22131;-70
2024/04/14 05:07:58;;;;;;;1.38;0.50;;;;;;;;;;5359324;26;20398;-70
2024/04/14 05:10:24;;;;;;;1.52;0.45;;;;;;;;;;5349222;26;20132;-70
2024/04/14 05:12:50;;;;;;;0.98;0.50;;;;;;;;;;5357177;26;20077;-70
2024/04/14 05:15:16;;;;;;;3.08;0.52;;;;;;;;;;5366150;26;20039;-70
2024/04/14 05:17:42;;;;;;;1.10;0.35;;;;;;;;;;5369233;26;20371;-71
2024/04/14 05:20:08;;;;;;;2.53;0.75;;;;;;;;;;5360934;26;20015;-70
2024/04/14 05:22:34;;;;;;;2.58;0.65;;;;;;;;;;5366456;26;20486;-70
2024/04/14 05:25:00;;;;;;;1.08;0.50;;;;;;;;;;5357124;26;20121;-69
2024/04/14 05:27:25;;;;;;;2.75;0.63;;;;;;;;;;5351815;26;20153;-70
2024/04/14 05:29:51;;;;;;;1.95;1.00;;;;;;;;;;5358487;26;20000;-70
2024/04/14 05:32:17;;;;;;;3.08;0.68;;;;;;;;;;5371443;26;20306;-70
2024/04/14 05:34:43;;;;;;;0.80;0.50;;;;;;;;;;5369863;26;20004;-70
2024/04/14 05:37:09;;;;;;;1.08;0.52;;;;;;;;;;5372399;26;20004;-73
2024/04/14 05:39:37;;;;;;;1.73;0.60;;;;;;;;;;5362578;26;20089;-73
2024/04/14 05:42:03;;;;;;;2.00;0.50;;;;;;;;;;5359039;26;20010;-71
2024/04/14 05:44:29;;;;;;;1.35;0.57;;;;;;;;;;5355953;26;19997;-71
2024/04/14 05:46:55;;;;;;;1.65;0.50;;;;;;;;;;5368303;26;20011;-72
2024/04/14 05:49:23;;;;;;;1.35;0.50;;;;;;;;;;5370566;26;20004;-71
2024/04/14 05:51:49;;;;;;;3.40;0.65;;;;;;;;;;5356522;26;20088;-71
2024/04/14 05:54:15;;;;;;;2.28;0.55;;;;;;;;;;5362522;26;20039;-72
2024/04/14 05:56:41;;;;;;;5.13;1.00;;;;;;;;;;5362167;26;20107;-71
2024/04/14 05:59:07;;;;;;;2.72;0.80;;;;;;;;;;5359879;26;19998;-72
2024/04/14 06:01:33;;;;;;;2.10;0.70;;;;;;;;;;5358824;26;20011;-71
2024/04/14 06:03:59;;;;;;;3.60;0.60;;;;;;;;;;5356050;26;20089;-72
2024/04/14 06:06:25;;;;;;;6.72;0.85;;;;;;;;;;5341911;26;20004;-71
2024/04/14 06:08:52;;;;;;;0.70;0.50;;;;;;;;;;5356024;26;20014;-71
2024/04/14 06:11:18;;;;;;;1.40;0.68;;;;;;;;;;5356407;26;20008;-72
2024/04/14 06:13:44;;;;;;;4.18;0.75;;;;;;;;;;5356461;26;20015;-71
2024/04/14 06:16:10;;;;;;;2.30;0.55;;;;;;;;;;5361579;26;20041;-72
2024/04/14 06:18:36;;;;;;;4.22;0.90;;;;;;;;;;5363610;26;20004;-71
2024/04/14 06:21:03;;;;;;;2.45;0.40;;;;;;;;;;5356564;26;19997;-72
2024/04/14 06:23:29;;;;;;;0.28;0.22;;;;;;;;;;5358024;26;20014;-71
2024/04/14 06:25:55;;;;;;;3.35;1.30;;;;;;;;;;5361803;26;20507;-71
2024/04/14 06:28:21;;;;;;;1.15;0.40;;;;;;;;;;5352236;26;20031;-72
2024/04/14 06:30:47;;;;;;;2.17;0.95;;;;;;;;;;5360483;26;20474;-71
2024/04/14 06:33:13;;;;;;;1.58;0.57;;;;;;;;;;5365751;26;19996;-72
2024/04/14 06:35:39;;;;;;;1.58;0.80;;;;;;;;;;5353749;26;20004;-71
2024/04/14 06:38:05;;;;;;;1.15;0.45;;;;;;;;;;5360417;26;20561;-72
2024/04/14 06:40:31;;;;;;;1.63;0.70;;;;;;;;;;5359274;26;20012;-71
2024/04/14 06:42:57;;;;;;;3.35;1.02;;;;;;;;;;5351657;26;20000;-72
2024/04/14 06:45:23;;;;;;;2.10;0.70;;;;;;;;;;5357231;26;20841;-72
2024/04/14 06:47:49;;;;;;;1.67;0.45;;;;;;;;;;5352882;26;20008;-72
2024/04/14 06:50:15;;;;;;;2.10;0.50;;;;;;;;;;5368220;26;20040;-71
2024/04/14 06:52:41;;;;;;;1.58;0.47;;;;;;;;;;5359909;26;20019;-72
2024/04/14 06:55:11;;;;;;;1.75;0.57;;;;;;;;;;5361507;26;19996;-71
2024/04/14 06:57:37;;;;;;;2.30;1.02;;;;;;;;;;5363513;26;20023;-72
2024/04/14 07:00:03;;;;;;;3.50;1.10;;;;;;;;;;5361001;26;20094;-72
2024/04/14 07:02:29;;;;;;;3.97;0.50;;;;;;;;;;5357670;26;20032;-72
2024/04/14 07:04:55;;;;;;;2.72;1.17;;;;;;;;;;5343197;26;20063;-71
2024/04/14 07:07:20;;;;;;;2.38;0.40;;;;;;;;;;5358462;26;20124;-72
2024/04/14 07:09:46;;;;;;;3.42;0.80;;;;;;;;;;5350913;26;20011;-73
2024/04/14 07:12:12;;;;;;;3.03;0.63;;;;;;;;;;5356595;26;20018;-71
2024/04/14 07:14:38;;;;;;;3.53;0.75;;;;;;;;;;5367012;26;20101;-70
2024/04/14 07:17:04;;;;;;;1.13;0.50;;;;;;;;;;5360801;26;20012;-71
2024/04/14 07:19:30;;;;;;;0.88;0.25;;;;;;;;;;5370717;26;19996;-72
2024/04/14 07:21:56;;;;;;;4.03;1.25;;;;;;;;;;5367443;26;20019;-71
2024/04/14 07:24:22;;;;;;;0.98;0.40;;;;;;;;;;5367575;26;20004;-71
2024/04/14 07:26:48;;;;;;;4.03;0.50;;;;;;;;;;5363348;26;20004;-71
2024/04/14 07:29:16;;;;;;;0.95;0.55;;;;;;;;;;5364969;26;20034;-72
2024/04/14 07:31:42;;;;;;;1.20;0.40;;;;;;;;;;5362393;26;20036;-71
2024/04/14 07:34:08;;;;;;;1.35;0.52;;;;;;;;;;5370417;26;20000;-71
2024/04/14 07:36:34;;;;;;;3.17;0.52;;;;;;;;;;5369294;26;20081;-71
2024/04/14 07:39:00;;;;;;;5.03;0.75;;;;;;;;;;5368245;26;20514;-71
2024/04/14 07:41:26;;;;;;;7.05;0.95;;;;;;;;;;5351564;26;20128;-71
2024/04/14 07:43:52;;;;;;;3.92;0.70;;;;;;;;;;5350940;26;20099;-70
2024/04/14 07:46:18;;;;;;;1.60;0.55;;;;;;;;;;5361276;26;20553;-72
2024/04/14 07:48:45;;;;;;;1.10;0.40;;;;;;;;;;5364434;26;20373;-72
2024/04/14 07:51:10;;;;;;;2.50;0.77;;;;;;;;;;5362641;26;20359;-71
2024/04/14 07:53:36;;;;;;;2.95;0.75;;;;;;;;;;5366262;26;20015;-71
2024/04/14 07:56:02;;;;;;;1.35;0.57;;;;;;;;;;5364411;26;20011;-71
2024/04/14 07:58:28;;;;;;;2.35;0.50;;;;;;;;;;5361528;26;20108;-71
2024/04/14 08:00:54;;;;;;;1.33;0.32;;;;;;;;;;5361402;26;20100;-72
2024/04/14 08:03:20;;;;;;;2.53;0.38;;;;;;;;;;5368658;26;20000;-71
2024/04/14 08:05:46;;;;;;;2.28;0.35;;;;;;;;;;5347403;26;20007;-71
2024/04/14 08:08:12;;;;;;;0.55;0.32;;;;;;;;;;5347899;26;20083;-71
2024/04/14 08:10:38;;;;;;;0.30;0.30;;;;;;;;;;5359411;26;20004;-71
2024/04/14 08:13:04;;;;;;;2.67;0.55;;;;;;;;;;5344464;26;20472;-71
2024/04/14 08:15:31;;;;;;;1.00;0.50;;;;;;;;;;5349700;26;20037;-71
2024/04/14 08:17:58;;;;;;;0.77;0.50;;;;;;;;;;5359999;26;20018;-70
2024/04/14 08:20:24;;;;;;;1.48;0.40;;;;;;;;;;5348396;26;20007;-72
2024/04/14 08:22:50;;;;;;;2.10;0.63;;;;;;;;;;5355460;26;20020;-71
2024/04/14 08:25:16;;;;;;;3.65;0.68;;;;;;;;;;5358888;26;20087;-71
2024/04/14 08:27:42;;;;;;;2.40;0.40;;;;;;;;;;5359996;26;20313;-72
2024/04/14 08:30:08;;;;;;;2.40;0.20;;;;;;;;;;5353549;26;20013;-71
2024/04/14 08:32:34;;;;;;;1.48;0.50;;;;;;;;;;5366629;26;20485;-71
2024/04/14 08:35:00;;;;;;;4.82;0.55;;;;;;;;;;5370630;26;20035;-71
2024/04/14 08:37:26;;;;;;;2.40;0.70;;;;;;;;;;5361777;26;20313;-71
2024/04/14 08:39:52;;;;;;;1.42;0.50;;;;;;;;;;5349987;26;20108;-71
2024/04/14 08:42:18;;;;;;;2.55;0.55;;;;;;;;;;5362227;26;20413;-71
2024/04/14 08:44:45;;;;;;;3.08;0.55;;;;;;;;;;5362882;26;20093;-72
2024/04/14 08:47:12;;;;;;;1.50;0.22;;;;;;;;;;5365025;26;20084;-72
2024/04/14 08:49:40;;;;;;;1.27;0.43;;;;;;;;;;5360582;26;20032;-72
2024/04/14 08:52:06;;;;;;;1.92;0.75;;;;;;;;;;5363496;26;20016;-71
2024/04/14 08:54:32;;;;;;;0.90;0.38;;;;;;;;;;5353922;26;20124;-71
2024/04/14 08:57:01;;;;;;;1.15;0.25;;;;;;;;;;5359032;26;20437;-72
2024/04/14 08:59:27;;;;;;;2.72;0.57;;;;;;;;;;5359209;26;20041;-72
2024/04/14 09:01:53;;;;;;;2.63;0.57;;;;;;;;;;5367343;26;20016;-71
2024/04/14 09:04:20;;;;;;;2.63;0.60;;;;;;;;;;5366805;26;20339;-71
2024/04/14 09:06:47;;;;;;;2.30;0.30;;;;;;;;;;5364557;26;20074;-71
2024/04/14 09:09:13;;;;;;;2.92;0.55;;;;;;;;;;5360850;26;20020;-72
2024/04/14 09:11:50;;;;;;;1.23;0.40;;;;;;;;;;5360085;26;20076;-71
2024/04/14 09:14:15;;;;;;;0.85;0.30;;;;;;;;;;5358854;26;20000;-72
2024/04/14 09:16:41;;;;;;;0.40;0.40;;;;;;;;;;5367082;26;20042;-72
2024/04/14 09:19:07;;;;;;;2.33;0.60;;;;;;;;;;5364050;26;20031;-72
2024/04/14 09:21:33;;;;;;;0.60;0.40;;;;;;;;;;5354277;26;20000;-71
2024/04/14 09:23:59;;;;;;;2.92;0.68;;;;;;;;;;5352402;26;20058;-72
2024/04/14 09:26:26;;;;;;;2.78;0.70;;;;;;;;;;5363180;26;20000;-71
2024/04/14 09:29:02;;;;;;;2.05;0.50;;;;;;;;;;5368393;26;20020;-71
2024/04/14 09:31:28;;;;;;;1.55;0.38;;;;;;;;;;5359613;26;20015;-70
2024/04/14 09:33:53;;;;;;;2.05;0.82;;;;;;;;;;5366309;26;19996;-72
2024/04/14 09:36:26;;;;;;;3.03;0.70;;;;;;;;;;5364282;26;20064;-71
2024/04/14 09:38:55;;;;;;;1.25;0.55;;;;;;;;;;5365162;26;19996;-71
2024/04/14 09:41:22;;;;;;;2.60;0.52;;;;;;;;;;5364587;26;19996;-69
2024/04/14 09:43:49;;;;;;;0.40;0.17;;;;;;;;;;5363283;26;20014;-69
2024/04/14 09:46:15;;;;;;;2.17;0.50;;;;;;;;;;5357718;26;20089;-70
2024/04/14 09:48:42;;;;;;;1.15;0.28;;;;;;;;;;5348768;26;20112;-70
2024/04/14 09:51:09;;;;;;;1.08;0.43;;;;;;;;;;5357663;26;20015;-70
2024/04/14 09:53:35;;;;;;;3.85;0.43;;;;;;;;;;5355560;26;20017;-70
2024/04/14 09:56:02;;;;;;;4.10;0.73;;;;;;;;;;5356078;26;20008;-70
2024/04/14 09:58:28;;;;;;;2.05;0.60;;;;;;;;;;5359330;26;20455;-70
2024/04/14 10:00:55;;;;;;;0.40;0.20;;;;;;;;;;5357302;26;20015;-70
2024/04/14 10:03:22;;;;;;;2.20;0.57;;;;;;;;;;5360369;26;20015;-71
2024/04/14 10:05:48;;;;;;;0.28;0.20;;;;;;;;;;5370092;26;20035;-71
2024/04/14 10:08:14;;;;;;;0.90;0.38;;;;;;;;;;5366762;26;20781;-70
2024/04/14 10:10:40;;;;;;;1.05;0.47;;;;;;;;;;5372148;26;20310;-70
2024/04/14 10:13:08;;;;;;;1.20;0.43;;;;;;;;;;5358291;26;20302;-71
2024/04/14 10:15:34;;;;;;;3.00;0.35;;;;;;;;;;5365565;26;20008;-71
2024/04/14 10:18:15;;;;;;;0.82;0.30;;;;;;;;;;5357470;26;20044;-70
2024/04/14 10:20:44;;;;;;;1.75;0.20;;;;;;;;;;5371014;26;20294;-71
2024/04/14 10:23:10;;;;;;;1.75;0.63;;;;;;;;;;5361636;26;20004;-71
2024/04/14 10:25:45;;;;;;;2.55;0.60;;;;;;;;;;5367134;26;20108;-71
2024/04/14 10:28:11;;;;;;;1.60;0.30;;;;;;;;;;5356128;26;19997;-70
2024/04/14 10:30:38;;;;;;;3.10;0.60;;;;;;;;;;5371856;26;20007;-71
2024/04/14 10:33:04;;;;;;;1.27;0.60;;;;;;;;;;5364573;26;20000;-70
2024/04/14 10:35:30;;;;;;;2.53;0.43;;;;;;;;;;5371433;26;20008;-69
2024/04/14 10:37:56;;;;;;;1.42;0.45;;;;;;;;;;5354577;26;20481;-72
2024/04/14 10:40:22;;;;;;;0.90;0.30;;;;;;;;;;5350702;26;20013;-71
2024/04/14 10:42:48;;;;;;;0.98;0.38;;;;;;;;;;5363891;26;20012;-71
2024/04/14 10:45:25;;;;;;;1.05;0.32;;;;;;;;;;5367669;26;20149;-71
2024/04/14 10:47:51;;;;;;;2.67;0.40;;;;;;;;;;5358458;26;20005;-72
2024/04/14 10:50:17;;;;;;;3.70;0.93;;;;;;;;;;5369896;26;20017;-71
2024/04/14 10:52:43;;;;;;;1.48;0.38;;;;;;;;;;5363868;26;20335;-72
2024/04/14 10:55:09;;;;;;;0.75;0.20;;;;;;;;;;5366753;26;20425;-71
2024/04/14 10:57:35;;;;;;;0.80;0.40;;;;;;;;;;5365629;26;20416;-70
2024/04/14 11:00:01;;;;;;;2.10;0.40;;;;;;;;;;5357956;26;20001;-71
2024/04/14 11:02:27;;;;;;;1.50;0.38;;;;;;;;;;5358060;26;20027;-71
2024/04/14 11:04:53;;;;;;;0.32;0.20;;;;;;;;;;5365960;26;20044;-70
2024/04/14 11:07:19;;;;;;;2.60;0.50;;;;;;;;;;5364202;26;20135;-71
2024/04/14 11:09:45;;;;;;;0.52;0.28;;;;;;;;;;5357318;26;20032;-70
2024/04/14 11:12:11;;;;;;;2.72;0.40;;;;;;;;;;5360570;26;20014;-71
2024/04/14 11:14:37;;;;;;;0.57;0.20;;;;;;;;;;5366083;26;20004;-71
2024/04/14 11:17:11;;;;;;;1.70;0.10;;;;;;;;;;5352437;26;20321;-70
2024/04/14 11:19:37;;;;;;;0.50;0.40;;;;;;;;;;5353359;26;20135;-70
2024/04/14 11:22:03;;;;;;;2.78;0.30;;;;;;;;;;5364207;26;20004;-70
2024/04/14 11:24:29;;;;;;;0.20;0.13;;;;;;;;;;5361287;26;20016;-71
2024/04/14 11:26:55;;;;;;;2.42;0.40;;;;;;;;;;5370605;26;20293;-71
2024/04/14 11:29:21;;;;;;;2.08;0.43;;;;;;;;;;5365870;26;20436;-70
2024/04/14 11:31:47;;;;;;;1.45;0.20;;;;;;;;;;5369765;26;20000;-71
2024/04/14 11:34:13;;;;;;;1.58;0.55;;;;;;;;;;5363686;26;20000;-70
2024/04/14 11:36:41;;;;;;;1.90;0.40;;;;;;;;;;5349853;26;20106;-71
2024/04/14 11:39:06;;;;;;;1.60;0.17;;;;;;;;;;5348959;26;19993;-70
2024/04/14 11:41:33;;;;;;;1.63;0.35;;;;;;;;;;5359905;26;20018;-70
2024/04/14 11:43:59;;;;;;;0.95;0.40;;;;;;;;;;5367163;26;20024;-70
2024/04/14 11:46:25;;;;;;;3.08;1.00;;;;;;;;;;5348182;26;20000;-70
2024/04/14 11:48:51;;;;;;;2.83;0.75;;;;;;;;;;5370566;26;20016;-70
2024/04/14 11:51:17;;;;;;;1.58;0.60;;;;;;;;;;5362398;26;20139;-70
2024/04/14 11:53:43;;;;;;;2.03;0.70;;;;;;;;;;5344923;26;20078;-70
2024/04/14 11:56:09;;;;;;;0.90;0.30;;;;;;;;;;5361409;26;20000;-70
2024/04/14 11:58:35;;;;;;;0.90;0.35;;;;;;;;;;5367566;26;20300;-70
2024/04/14 12:01:01;;;;;;;1.48;0.40;;;;;;;;;;5367114;26;20082;-70
2024/04/14 12:03:27;;;;;;;1.42;0.40;;;;;;;;;;5359759;26;20130;-70
2024/04/14 12:05:53;;;;;;;0.77;0.47;;;;;;;;;;5365339;26;20015;-70
2024/04/14 12:08:20;;;;;;;1.20;0.32;;;;;;;;;;5364756;26;20417;-69
2024/04/14 12:10:46;;;;;;;0.88;0.32;;;;;;;;;;5362948;26;20012;-70
2024/04/14 12:13:11;;;;;;;0.40;0.10;;;;;;;;;;5349887;26;20278;-70
2024/04/14 12:15:37;;;;;;;2.25;0.88;;;;;;;;;;5369528;26;20413;-70
2024/04/14 12:18:03;;;;;;;3.42;0.60;;;;;;;;;;5368629;26;20015;-70
2024/04/14 12:20:29;;;;;;;1.33;0.35;;;;;;;;;;5365177;26;20032;-71
2024/04/14 12:22:55;;;;;;;1.05;0.22;;;;;;;;;;5349762;26;20018;-70
2024/04/14 12:25:21;;;;;;;1.17;0.52;;;;;;;;;;5361847;26;20025;-71
2024/04/14 12:27:47;;;;;;;4.60;0.20;;;;;;;;;;5360996;26;20037;-70
2024/04/14 12:30:13;;;;;;;4.22;0.45;;;;;;;;;;5358821;26;20000;-70
2024/04/14 12:32:40;;;;;;;0.68;0.30;;;;;;;;;;5364135;26;20000;-71
2024/04/14 12:35:06;;;;;;;0.90;0.20;;;;;;;;;;5353179;26;19996;-70
2024/04/14 12:37:32;;;;;;;0.55;0.35;;;;;;;;;;5356306;26;20023;-70
2024/04/14 12:39:58;;;;;;;1.60;0.40;;;;;;;;;;5359488;26;20103;-70
2024/04/14 12:42:24;;;;;;;1.15;0.20;;;;;;;;;;5363914;26;20000;-70
2024/04/14 12:44:50;;;;;;;0.95;0.25;;;;;;;;;;5357912;26;20004;-70
2024/04/14 12:47:15;;;;;;;0.70;0.20;;;;;;;;;;5365075;26;20100;-70
2024/04/14 12:49:41;;;;;;;2.05;0.43;;;;;;;;;;5349889;26;20043;-71
2024/04/14 12:52:07;;;;;;;2.15;0.15;;;;;;;;;;5362908;26;20087;-70
2024/04/14 12:54:33;;;;;;;9.50;0.68;;;;;;;;;;5367477;26;20014;-70
2024/04/14 12:56:59;;;;;;;3.30;0.43;;;;;;;;;;5358109;26;20119;-70
2024/04/14 12:59:25;;;;;;;0.95;0.20;;;;;;;;;;5358799;26;20052;-70
2024/04/14 13:01:51;;;;;;;1.85;0.25;;;;;;;;;;5366411;26;20038;-70
2024/04/14 13:04:17;;;;;;;1.02;0.40;;;;;;;;;;5355904;26;20020;-69
2024/04/14 13:06:43;;;;;;;2.90;0.47;;;;;;;;;;5357541;26;20008;-70
2024/04/14 13:09:09;;;;;;;0.52;0.30;;;;;;;;;;5358655;26;19996;-68
2024/04/14 13:11:35;;;;;;;1.20;0.20;;;;;;;;;;5369759;26;20446;-69
2024/04/14 13:14:01;;;;;;;0.35;0.13;;;;;;;;;;5359829;26;20080;-71
2024/04/14 13:16:27;;;;;;;1.48;0.47;;;;;;;;;;5337730;26;20000;-71
2024/04/14 13:18:54;;;;;;;3.45;0.50;;;;;;;;;;5369654;26;20086;-71
2024/04/14 13:21:20;;;;;;;1.17;0.20;;;;;;;;;;5366066;26;20105;-71
2024/04/14 13:23:47;;;;;;;2.63;0.32;;;;;;;;;;5352403;26;20060;-72
2024/04/14 13:26:13;;;;;;;1.77;0.30;;;;;;;;;;5369400;26;20008;-71
2024/04/14 13:28:39;;;;;;;2.35;0.20;;;;;;;;;;5366407;26;20297;-73
2024/04/14 13:31:05;;;;;;;4.93;0.47;;;;;;;;;;5365190;26;20020;-71
2024/04/14 13:33:31;;;;;;;0.22;0.20;;;;;;;;;;5345689;26;20063;-71
2024/04/14 13:35:57;;;;;;;1.48;0.20;;;;;;;;;;5366475;26;20078;-72
2024/04/14 13:38:22;;;;;;;1.60;0.65;;;;;;;;;;5361760;26;20136;-72
2024/04/14 13:40:48;;;;;;;1.73;0.38;;;;;;;;;;5347657;26;20008;-71
2024/04/14 13:43:14;;;;;;;1.55;0.40;;;;;;;;;;5363621;26;20137;-70
2024/04/14 13:45:40;;;;;;;0.30;0.20;;;;;;;;;;5357988;26;20064;-70
2024/04/14 13:48:06;;;;;;;1.20;0.30;;;;;;;;;;5363562;26;20000;-70
2024/04/14 13:50:32;;;;;;;1.40;0.30;;;;;;;;;;5371903;26;20011;-69
2024/04/14 13:52:59;;;;;;;0.50;0.30;;;;;;;;;;5356164;26;20012;-69
2024/04/14 13:55:25;;;;;;;1.63;0.70;;;;;;;;;;5355721;26;20001;-69
2024/04/14 13:57:51;;;;;;;1.13;0.13;;;;;;;;;;5359196;26;20077;-70
2024/04/14 14:00:21;;;;;;;2.22;0.47;;;;;;;;;;5358717;26;20516;-68
2024/04/14 14:02:47;;;;;;;0.82;0.40;;;;;;;;;;5357850;26;20138;-69
2024/04/14 14:05:13;;;;;;;0.80;0.30;;;;;;;;;;5365789;26;20377;-69
2024/04/14 14:07:39;;;;;;;0.05;0.05;;;;;;;;;;5363087;26;20050;-70
2024/04/14 14:10:05;;;;;;;0.38;0.25;;;;;;;;;;5364897;26;20004;-71
2024/04/14 14:12:31;;;;;;;0.50;0.20;;;;;;;;;;5358690;26;20127;-71
2024/04/14 14:14:57;;;;;;;0.30;0.10;;;;;;;;;;5360430;26;20389;-70
2024/04/14 14:17:22;;;;;;;1.10;0.20;;;;;;;;;;5355655;26;20008;-70
2024/04/14 14:19:51;;;;;;;1.10;0.22;;;;;;;;;;5372126;26;20316;-70
2024/04/14 14:22:17;;;;;;;0.90;0.15;;;;;;;;;;5361600;26;20000;-70
2024/04/14 14:24:43;;;;;;;1.52;0.30;;;;;;;;;;5362597;26;20001;-67
2024/04/14 14:27:09;;;;;;;0.75;0.30;;;;;;;;;;5343029;26;20012;-68
2024/04/14 14:29:35;;;;;;;2.83;0.47;;;;;;;;;;5358703;26;20341;-68
2024/04/14 14:32:01;;;;;;;0.47;0.20;;;;;;;;;;5365246;26;19996;-68
2024/04/14 14:37:12;;;;;;;2.58;1.08;;;;;;;;;;5364977;26;20045;-67
2024/04/14 14:39:38;;;;;;;1.35;0.55;;;;;;;;;;5365489;26;19997;-69